Forside
METAR-TAF:

METAR-TAF

Lufthavne :

Tarawa, Kiribati

Breddekreds: 01-21N, længdekreds: 172-55E, højde: 2 m

Aktuelle vejr

Denne rapport blev lavet for 29 minutter siden, kl. 09:00 UTC
Vind 5 kt fra østnordøst
Temperatur 27°C
Fugtighed 89%
Tryk 1009 hPa
Sigt 10 km eller mere
Nogle få skyer i en højde af 1800 ft, Optårnet Cumulus.
Spredte skyer i en højde af 30000 ft

METAR: NGTA 230900Z 06005KT 9999 FEW018TCU SCT300 27/25 Q1009

Tid: 23:29 (09:29 UTC)

Vejrudsigter

Denne rapport blev lavet for 4 timer og 5 minutter siden, kl. 05:24 UTC
Foreløbig gælder fra 23 på 06 UTC til 24 på 06 UTC
Vind 8 kt fra østnordøst
Sigt 10 km eller mere
Spredte skyer i en højde af 1800 ft

TAF: NGTA 230524Z 2306/2406 06008KT 9999 SCT018

Vejrobservationer og prognoser fra mere end 4000 lufthavne (METAR og TAF).

De gule og røde prikker repræsenterer de meteorologiske stationer.

Flyt musen over at se navnet på stationen.

Så klik over at se vejr observationer og prognoser.

At skifte det kort: Klik på de grønne knapper med et sort kors for at zoome ind; på den grønne knap med en bindestreg for at zoome ud; eller på de grønne pile for tilstødende kort.


METAR-TAF: